Time;durP1;ratioP1;P1;durP2;ratioP2;P2;SDS_P1;SDS_P2;PMS_P1;PMS_P2;Temp;Humidity;BMP_temperature;BMP_pressure;BME280_temperature;BME280_humidity;BME280_pressure;Samples;Min_cycle;Max_cycle;Signal;HPM_P1;HPM_P2
2022/05/11 00:00:14;;;;;;;13.30;8.32;;;19.00;73.90;;;;;;5114799;28;20051;-65
2022/05/11 00:02:40;;;;;;;14.93;8.80;;;18.90;74.00;;;;;;5114752;28;20061;-65
2022/05/11 00:05:09;;;;;;;12.15;8.68;;;18.90;74.10;;;;;;5114704;28;20028;-65
2022/05/11 00:07:35;;;;;;;12.55;8.70;;;18.80;74.60;;;;;;5114559;28;20111;-65
2022/05/11 00:10:00;;;;;;;14.70;9.63;;;18.80;74.80;;;;;;5114537;28;20069;-65
2022/05/11 00:12:26;;;;;;;11.48;8.27;;;18.80;75.00;;;;;;5114627;28;20055;-65
2022/05/11 00:14:52;;;;;;;10.57;8.50;;;18.80;74.80;;;;;;5114301;28;20050;-65
2022/05/11 00:17:18;;;;;;;11.20;8.80;;;18.80;74.40;;;;;;5114514;28;20032;-65
2022/05/11 00:19:44;;;;;;;13.80;8.32;;;18.70;74.50;;;;;;5114490;28;20043;-65
2022/05/11 00:22:10;;;;;;;17.25;8.93;;;18.70;74.70;;;;;;5113977;28;20027;-65
2022/05/11 00:24:36;;;;;;;15.57;9.25;;;18.60;75.20;;;;;;5114232;28;20028;-65
2022/05/11 00:27:02;;;;;;;15.57;8.55;;;18.60;75.20;;;;;;5114035;28;20051;-66
2022/05/11 00:29:30;;;;;;;12.02;8.18;;;18.60;75.30;;;;;;5114291;28;20094;-65
2022/05/11 00:31:56;;;;;;;12.23;7.95;;;18.60;75.40;;;;;;5114282;28;20031;-65
2022/05/11 00:34:22;;;;;;;13.25;8.23;;;18.50;75.20;;;;;;5114320;28;20019;-66
2022/05/11 00:36:47;;;;;;;12.57;7.93;;;18.50;75.40;;;;;;5113389;28;20468;-66
2022/05/11 00:39:13;;;;;;;11.48;8.10;;;18.50;75.20;;;;;;5113936;28;20023;-65
2022/05/11 00:41:40;;;;;;;12.23;8.35;;;18.50;74.90;;;;;;5114214;28;20043;-65
2022/05/11 00:44:09;;;;;;;16.10;8.50;;;18.40;74.70;;;;;;5113868;28;20099;-65
2022/05/11 00:46:49;;;;;;;19.08;9.27;;;18.40;74.80;;;;;;5113899;28;20085;-65
2022/05/11 00:49:36;;;;;;;13.52;7.85;;;18.30;74.90;;;;;;5113959;28;20024;-65
2022/05/11 00:52:12;;;;;;;17.55;9.82;;;18.30;74.90;;;;;;5113657;28;20480;-65
2022/05/11 00:54:46;;;;;;;16.65;8.77;;;18.30;74.90;;;;;;5113603;28;20059;-65
2022/05/11 00:57:18;;;;;;;12.82;7.68;;;18.30;75.00;;;;;;5113658;28;20102;-65
2022/05/11 00:59:45;;;;;;;;;;;18.20;75.00;;;;;;5111016;28;20023;-66
2022/05/11 01:02:12;;;;;;;11.52;8.23;;;18.20;74.80;;;;;;5110739;28;20325;-66
2022/05/11 01:04:41;;;;;;;12.70;8.18;;;18.10;75.60;;;;;;5111860;28;20059;-66
2022/05/11 01:07:09;;;;;;;14.98;9.20;;;18.10;75.00;;;;;;5113296;28;20051;-65
2022/05/11 01:09:35;;;;;;;15.07;9.02;;;18.10;75.20;;;;;;5113519;28;20016;-65
2022/05/11 01:12:02;;;;;;;12.07;8.27;;;18.10;75.70;;;;;;5113414;28;20505;-65
2022/05/11 01:14:34;;;;;;;16.63;8.80;;;18.00;75.80;;;;;;5113250;28;20020;-65
2022/05/11 01:17:00;;;;;;;15.20;8.37;;;18.00;75.90;;;;;;5113676;28;20073;-65
2022/05/11 01:19:29;;;;;;;17.38;8.50;;;17.90;76.30;;;;;;5113598;28;20058;-65
2022/05/11 01:22:03;;;;;;;12.43;9.18;;;17.90;76.40;;;;;;5113109;28;20145;-65
2022/05/11 01:24:40;;;;;;;14.80;8.55;;;17.90;76.10;;;;;;5113425;28;20028;-65
2022/05/11 01:27:30;;;;;;;19.05;8.95;;;17.90;76.00;;;;;;5113128;28;20100;-66
2022/05/11 01:30:00;;;;;;;15.77;8.27;;;17.90;76.00;;;;;;5113176;28;20016;-66
2022/05/11 01:32:28;;;;;;;20.65;8.85;;;17.90;76.20;;;;;;5113332;28;20023;-66
2022/05/11 01:35:10;;;;;;;19.88;8.77;;;17.90;76.30;;;;;;5113463;28;20027;-66
2022/05/11 01:37:41;;;;;;;12.05;8.73;;;17.90;76.40;;;;;;5113323;28;20032;-65
2022/05/11 01:40:08;;;;;;;17.02;9.50;;;17.90;76.20;;;;;;5112967;28;20034;-65
2022/05/11 01:42:34;;;;;;;15.75;9.38;;;17.90;76.40;;;;;;5112895;28;20035;-64
2022/05/11 01:45:00;;;;;;;12.65;8.93;;;17.90;76.50;;;;;;5113242;28;20084;-65
2022/05/11 01:47:26;;;;;;;13.68;8.95;;;17.80;76.70;;;;;;5113339;28;20027;-65
2022/05/11 01:49:51;;;;;;;18.08;8.70;;;17.80;76.80;;;;;;5117296;28;20023;-65
2022/05/11 01:52:17;;;;;;;14.57;8.77;;;17.80;76.90;;;;;;5116680;28;20046;-65
2022/05/11 01:54:43;;;;;;;11.40;8.77;;;17.80;77.00;;;;;;5117120;28;20055;-65
2022/05/11 01:57:08;;;;;;;15.52;8.50;;;17.70;77.10;;;;;;5117220;28;20024;-66
2022/05/11 01:59:34;;;;;;;16.55;8.75;;;17.70;77.20;;;;;;5117202;28;20168;-65
2022/05/11 02:02:00;;;;;;;14.93;9.30;;;17.70;77.10;;;;;;5117229;28;20100;-65
2022/05/11 02:09:54;;;;;;;12.02;9.10;;;17.60;76.50;;;;;;5116796;28;20031;-65
2022/05/11 02:12:20;;;;;;;13.05;8.50;;;17.70;76.60;;;;;;5117029;28;20476;-65
2022/05/11 02:14:46;;;;;;;15.48;9.32;;;17.60;76.50;;;;;;5115617;28;20371;-65
2022/05/11 02:17:12;;;;;;;16.88;9.10;;;17.60;76.60;;;;;;5116431;28;20031;-65
2022/05/11 02:19:38;;;;;;;17.38;9.52;;;17.50;77.00;;;;;;5116759;28;20031;-65
2022/05/11 02:22:03;;;;;;;17.95;9.27;;;17.50;77.20;;;;;;5117044;28;20035;-67
2022/05/11 02:24:29;;;;;;;15.80;9.63;;;17.40;77.50;;;;;;5116797;28;20059;-65
2022/05/11 02:26:55;;;;;;;18.88;10.10;;;17.40;77.90;;;;;;5116477;28;20062;-65
2022/05/11 02:29:21;;;;;;;23.25;10.35;;;17.40;78.00;;;;;;5116675;28;20023;-65
2022/05/11 02:31:47;;;;;;;14.23;8.90;;;17.40;77.70;;;;;;5116783;28;20359;-66
2022/05/11 02:35:12;;;;;;;15.85;9.45;;;17.40;77.30;;;;;;5116449;28;20030;-66
2022/05/11 02:36:58;;;;;;;16.73;9.10;;;17.40;77.10;;;;;;5116452;28;20130;-66
2022/05/11 02:39:24;;;;;;;14.70;8.60;;;17.30;76.90;;;;;;5116417;28;20524;-65
2022/05/11 02:41:50;;;;;;;15.82;8.98;;;17.30;76.90;;;;;;5116597;28;20072;-65
2022/05/11 02:44:15;;;;;;;17.00;8.45;;;17.20;76.90;;;;;;5116375;28;20356;-66
2022/05/11 02:46:41;;;;;;;12.98;9.02;;;17.20;77.50;;;;;;5116312;28;20492;-65
2022/05/11 02:49:07;;;;;;;18.83;8.60;;;17.20;76.80;;;;;;5116368;28;20027;-65
2022/05/11 02:51:33;;;;;;;12.80;8.93;;;17.20;77.10;;;;;;5115902;28;20023;-65
2022/05/11 02:53:58;;;;;;;15.40;9.00;;;17.10;77.20;;;;;;5116105;28;20023;-65
2022/05/11 02:56:24;;;;;;;12.45;8.77;;;17.10;77.20;;;;;;5116194;28;20024;-65
2022/05/11 02:58:50;;;;;;;18.40;9.43;;;17.10;77.60;;;;;;5115748;28;20380;-67
2022/05/11 03:01:15;;;;;;;19.10;9.05;;;17.10;77.80;;;;;;5116344;28;20031;-66
2022/05/11 03:03:41;;;;;;;19.35;8.90;;;17.00;77.90;;;;;;5116012;28;20110;-66
2022/05/11 03:06:07;;;;;;;18.05;9.00;;;17.00;78.30;;;;;;5115888;28;20024;-65
2022/05/11 03:08:34;;;;;;;11.35;8.82;;;17.00;78.30;;;;;;5115958;28;20024;-65
2022/05/11 03:11:00;;;;;;;16.40;9.50;;;17.00;78.30;;;;;;5116142;28;20012;-65
2022/05/11 03:13:26;;;;;;;16.70;8.82;;;17.00;78.40;;;;;;5115923;28;20118;-66
2022/05/11 03:15:53;;;;;;;15.38;9.10;;;17.00;78.20;;;;;;5115744;28;20024;-65
2022/05/11 03:18:18;;;;;;;15.57;8.75;;;17.00;77.90;;;;;;5115718;28;20497;-65
2022/05/11 03:20:44;;;;;;;13.88;8.95;;;17.00;77.80;;;;;;5115545;28;20028;-66
2022/05/11 03:23:10;;;;;;;15.25;8.85;;;17.00;77.70;;;;;;5115804;28;20024;-66
2022/05/11 03:25:36;;;;;;;12.88;8.95;;;17.00;77.80;;;;;;5115378;28;20024;-65
2022/05/11 03:28:01;;;;;;;14.93;9.00;;;17.00;78.00;;;;;;5115159;28;20059;-65
2022/05/11 03:30:27;;;;;;;13.10;9.05;;;17.00;78.30;;;;;;5115264;28;20040;-65
2022/05/11 03:35:37;;;;;;;15.35;9.90;;;17.00;78.40;;;;;;5115494;28;20073;-65
2022/05/11 03:38:04;;;;;;;14.00;10.05;;;17.00;78.60;;;;;;5115393;28;20391;-65
2022/05/11 03:40:29;;;;;;;19.35;9.50;;;16.90;78.80;;;;;;5115377;28;20031;-65
2022/05/11 03:42:55;;;;;;;15.35;9.90;;;16.90;79.00;;;;;;5115212;28;20020;-65
2022/05/11 03:45:23;;;;;;;14.25;9.93;;;16.90;79.10;;;;;;5115035;28;20047;-66
2022/05/11 03:47:49;;;;;;;16.23;9.95;;;16.90;79.10;;;;;;5115045;28;20055;-65
2022/05/11 03:50:17;;;;;;;16.88;9.98;;;16.90;79.10;;;;;;5114932;28;20024;-65
2022/05/11 03:52:43;;;;;;;13.85;10.27;;;16.90;78.90;;;;;;5115132;28;20054;-66
2022/05/11 03:55:10;;;;;;;21.65;11.27;;;16.90;78.90;;;;;;5115053;28;20420;-64
2022/05/11 03:57:37;;;;;;;18.75;9.80;;;16.80;78.90;;;;;;5114621;28;20016;-64
2022/05/11 04:00:07;;;;;;;17.73;10.57;;;16.90;78.70;;;;;;5114675;28;20514;-65
2022/05/11 04:02:33;;;;;;;15.50;10.15;;;16.90;78.90;;;;;;5114785;28;20098;-65
2022/05/11 04:04:58;;;;;;;16.58;10.85;;;16.90;79.20;;;;;;5114679;28;20235;-65
2022/05/11 04:07:24;;;;;;;15.95;11.40;;;16.90;79.10;;;;;;5114626;28;20546;-65
2022/05/11 04:09:50;;;;;;;16.45;10.90;;;16.80;79.00;;;;;;5114387;28;20099;-65
2022/05/11 04:12:16;;;;;;;16.13;10.43;;;16.80;79.10;;;;;;5113560;28;20032;-65
2022/05/11 04:14:42;;;;;;;15.98;11.05;;;16.80;79.10;;;;;;5114586;28;20122;-65
2022/05/11 04:17:08;;;;;;;19.88;11.30;;;16.80;79.10;;;;;;5114622;28;20115;-66
2022/05/11 04:19:33;;;;;;;17.80;10.88;;;16.90;79.20;;;;;;5114325;28;20098;-65
2022/05/11 04:21:59;;;;;;;14.18;9.55;;;16.80;79.20;;;;;;5114642;28;20107;-65
2022/05/11 04:24:25;;;;;;;11.18;9.68;;;16.80;80.10;;;;;;5114321;28;20027;-65
2022/05/11 04:26:50;;;;;;;14.27;8.90;;;16.90;79.70;;;;;;5113997;28;20040;-66
2022/05/11 04:29:17;;;;;;;14.18;10.27;;;16.80;79.80;;;;;;5114426;28;20028;-65
2022/05/11 04:31:43;;;;;;;18.13;9.55;;;16.80;79.80;;;;;;5114236;28;20024;-65
2022/05/11 04:34:11;;;;;;;14.65;9.18;;;16.90;79.90;;;;;;5114276;28;20038;-67
2022/05/11 04:36:39;;;;;;;21.13;9.93;;;16.90;80.00;;;;;;5114006;28;20492;-65
2022/05/11 04:39:06;;;;;;;15.10;9.45;;;16.90;79.90;;;;;;5113946;28;20024;-65
2022/05/11 04:41:32;;;;;;;14.40;9.73;;;16.80;79.80;;;;;;5114223;28;20019;-66
2022/05/11 04:43:58;;;;;;;14.90;9.70;;;16.90;79.80;;;;;;5114167;28;20077;-65
2022/05/11 04:46:23;;;;;;;19.88;9.32;;;16.90;80.20;;;;;;5113828;28;20032;-65
2022/05/11 04:48:49;;;;;;;15.15;9.27;;;16.90;80.40;;;;;;5113983;28;20035;-65
2022/05/11 04:51:15;;;;;;;17.48;9.98;;;17.00;80.40;;;;;;5113948;28;20134;-65
2022/05/11 04:53:40;;;;;;;16.00;9.75;;;17.00;80.30;;;;;;5113780;28;20024;-65
2022/05/11 04:56:06;;;;;;;19.15;9.68;;;17.00;80.20;;;;;;5113749;28;20117;-65
2022/05/11 04:58:32;;;;;;;15.18;9.95;;;17.10;80.40;;;;;;5113793;28;20103;-65
2022/05/11 05:00:58;;;;;;;16.23;9.63;;;17.10;81.00;;;;;;5113653;28;20384;-66
2022/05/11 05:03:24;;;;;;;15.93;9.65;;;17.10;81.20;;;;;;5113772;28;20032;-67
2022/05/11 05:05:50;;;;;;;15.93;9.77;;;17.10;81.50;;;;;;5113874;28;20020;-65
2022/05/11 05:08:16;;;;;;;13.65;8.70;;;17.20;81.70;;;;;;5113557;28;20047;-65
2022/05/11 05:10:43;;;;;;;19.60;9.40;;;17.20;81.70;;;;;;5113211;28;20023;-67
2022/05/11 05:13:11;;;;;;;13.45;9.52;;;17.30;81.30;;;;;;5113138;28;20024;-65
2022/05/11 05:15:39;;;;;;;16.98;9.45;;;17.30;81.00;;;;;;5113398;28;20424;-65
2022/05/11 05:18:06;;;;;;;16.85;9.60;;;17.40;81.20;;;;;;5112997;28;20036;-65
2022/05/11 05:20:32;;;;;;;20.38;9.52;;;17.40;81.10;;;;;;5112482;28;20020;-65
2022/05/11 05:22:58;;;;;;;15.32;9.32;;;17.50;81.10;;;;;;5112257;28;20032;-64
2022/05/11 05:25:25;;;;;;;16.50;9.98;;;17.50;80.90;;;;;;5112485;28;20020;-66
2022/05/11 05:27:52;;;;;;;13.30;8.32;;;17.50;80.70;;;;;;5112231;28;20055;-66
2022/05/11 05:33:03;;;;;;;24.40;9.20;;;17.60;80.40;;;;;;5112656;28;20525;-66
2022/05/11 05:35:29;;;;;;;22.27;9.55;;;17.70;80.50;;;;;;5112396;28;20015;-67
2022/05/11 05:37:55;;;;;;;24.75;9.43;;;17.80;80.50;;;;;;5112860;28;20034;-65
2022/05/11 05:40:21;;;;;;;17.65;8.80;;;17.80;80.50;;;;;;5112431;28;20015;-64
2022/05/11 05:42:47;;;;;;;15.20;8.63;;;17.90;80.80;;;;;;5111920;28;20388;-65
2022/05/11 05:45:13;;;;;;;16.02;9.20;;;17.90;80.70;;;;;;5112302;28;20471;-65
2022/05/11 05:47:40;;;;;;;14.68;9.30;;;17.90;80.80;;;;;;5112199;28;20069;-65
2022/05/11 05:50:07;;;;;;;12.50;9.38;;;18.00;80.50;;;;;;5112286;28;20406;-65
2022/05/11 05:52:32;;;;;;;15.07;8.23;;;18.00;80.30;;;;;;5112243;28;20085;-64
2022/05/11 05:54:58;;;;;;;17.48;8.57;;;18.10;80.70;;;;;;5112467;28;20024;-64
2022/05/11 05:57:24;;;;;;;16.77;7.93;;;18.10;79.60;;;;;;5112603;28;20032;-66
2022/05/11 05:59:50;;;;;;;15.85;8.73;;;18.20;79.10;;;;;;5112397;28;20065;-65
2022/05/11 06:02:16;;;;;;;16.13;8.43;;;18.20;78.70;;;;;;5111711;28;20475;-65
2022/05/11 06:04:51;;;;;;;11.43;8.88;;;18.30;78.40;;;;;;5112264;28;20028;-63
2022/05/11 06:07:19;;;;;;;26.27;8.93;;;18.30;78.20;;;;;;5112004;28;20384;-64
2022/05/11 06:09:45;;;;;;;12.93;8.95;;;18.40;78.00;;;;;;5112503;28;20024;-65
2022/05/11 06:12:12;;;;;;;19.65;8.38;;;18.50;77.20;;;;;;5112398;28;20038;-70
2022/05/11 06:14:39;;;;;;;11.73;8.50;;;18.50;77.70;;;;;;5111181;28;20024;-67
2022/05/11 06:17:18;;;;;;;16.77;8.23;;;18.60;77.60;;;;;;5111563;28;20020;-67
2022/05/11 06:19:45;;;;;;;14.05;8.43;;;18.60;77.20;;;;;;5110850;28;20051;-67
2022/05/11 06:22:10;;;;;;;13.90;8.65;;;18.60;77.40;;;;;;5111858;28;20120;-65
2022/05/11 06:24:36;;;;;;;13.23;8.82;;;18.80;77.60;;;;;;5112681;28;20478;-67
2022/05/11 06:27:03;;;;;;;14.85;9.18;;;18.80;77.50;;;;;;5112455;28;20044;-67
2022/05/11 06:29:28;;;;;;;17.48;8.70;;;18.80;77.30;;;;;;5112296;28;20020;-66
2022/05/11 06:31:54;;;;;;;10.27;8.73;;;18.90;76.60;;;;;;5112802;28;20085;-67
2022/05/11 06:34:20;;;;;;;17.10;8.60;;;18.90;76.50;;;;;;5114173;28;20385;-67
2022/05/11 06:36:45;;;;;;;11.77;8.68;;;19.00;76.40;;;;;;5116749;28;20019;-65
2022/05/11 06:39:12;;;;;;;14.88;9.10;;;19.10;76.50;;;;;;5116218;28;20074;-67
2022/05/11 06:41:38;;;;;;;12.73;8.85;;;19.10;77.30;;;;;;5115789;28;20034;-68
2022/05/11 06:44:04;;;;;;;16.25;8.77;;;19.20;76.40;;;;;;5115896;28;20019;-71
2022/05/11 06:46:29;;;;;;;18.33;8.65;;;19.30;76.00;;;;;;5115112;28;20573;-67
2022/05/11 06:48:55;;;;;;;10.00;8.18;;;19.30;75.90;;;;;;5116184;28;20020;-67
2022/05/11 06:51:21;;;;;;;15.48;9.15;;;19.40;76.30;;;;;;5114976;28;20455;-65
2022/05/11 06:59:21;;;;;;;20.25;9.25;;;19.50;75.70;;;;;;5115767;28;20101;-64
2022/05/11 07:01:54;;;;;;;15.30;8.73;;;19.60;75.60;;;;;;5115322;28;20024;-65
2022/05/11 07:04:23;;;;;;;15.30;8.20;;;19.60;75.40;;;;;;5115664;28;20023;-64
2022/05/11 07:06:56;;;;;;;16.88;8.40;;;19.70;74.90;;;;;;5115848;28;20046;-66
2022/05/11 07:09:24;;;;;;;13.70;7.45;;;19.80;74.90;;;;;;5115926;28;20034;-65
2022/05/11 07:14:36;;;;;;;12.63;7.78;;;19.90;74.20;;;;;;5116031;28;20081;-65
2022/05/11 07:17:02;;;;;;;10.88;7.97;;;20.00;73.60;;;;;;5115744;28;20426;-66
2022/05/11 07:19:28;;;;;;;20.50;8.48;;;20.10;73.10;;;;;;5115908;28;20099;-66
2022/05/11 07:21:54;;;;;;;22.17;8.40;;;20.10;72.80;;;;;;5114568;28;20507;-67
2022/05/11 07:24:20;;;;;;;13.73;8.00;;;20.10;72.40;;;;;;5115341;28;20081;-67
2022/05/11 07:26:46;;;;;;;19.10;8.25;;;20.20;72.60;;;;;;5115055;28;20043;-67
2022/05/11 07:29:13;;;;;;;17.67;7.97;;;20.20;72.70;;;;;;5112957;28;20024;-69
2022/05/11 07:31:39;;;;;;;16.35;7.78;;;20.30;72.50;;;;;;5114390;28;20053;-70
2022/05/11 07:34:05;;;;;;;14.07;8.73;;;20.30;72.40;;;;;;5115129;28;20160;-68
2022/05/11 07:36:31;;;;;;;15.57;7.95;;;20.30;72.30;;;;;;5094520;28;20476;-68
2022/05/11 07:38:57;;;;;;;13.35;8.23;;;20.40;72.40;;;;;;5094690;28;20065;-68
2022/05/11 07:41:23;;;;;;;13.07;8.38;;;20.50;72.30;;;;;;5094645;28;20107;-67
2022/05/11 07:43:49;;;;;;;11.50;7.32;;;20.50;71.50;;;;;;5093994;28;20509;-67
2022/05/11 07:46:15;;;;;;;15.65;7.55;;;20.60;71.40;;;;;;5094640;28;20024;-67
2022/05/11 07:48:41;;;;;;;12.52;7.82;;;20.60;72.30;;;;;;5093593;28;20108;-67
2022/05/11 07:51:06;;;;;;;16.40;7.28;;;20.70;72.10;;;;;;5094760;28;20031;-67
2022/05/11 07:53:32;;;;;;;10.43;6.78;;;20.80;70.90;;;;;;5094849;28;20642;-67
2022/05/11 08:01:27;;;;;;;13.40;7.40;;;20.90;70.20;;;;;;5094494;28;20040;-67
2022/05/11 08:03:52;;;;;;;16.55;7.80;;;21.00;70.70;;;;;;5093462;28;20024;-67
2022/05/11 08:06:19;;;;;;;15.23;6.43;;;21.10;69.60;;;;;;5094463;28;20028;-66
2022/05/11 08:08:45;;;;;;;15.63;6.85;;;21.10;69.10;;;;;;5094524;28;20396;-66
2022/05/11 08:11:10;;;;;;;20.17;7.20;;;21.20;68.40;;;;;;5094477;28;20422;-66
2022/05/11 08:13:36;;;;;;;13.18;7.00;;;21.20;67.90;;;;;;5094460;28;20028;-67
2022/05/11 08:16:02;;;;;;;15.82;6.90;;;21.20;67.60;;;;;;5094249;28;20028;-66
2022/05/11 08:18:28;;;;;;;14.98;7.10;;;21.30;68.10;;;;;;5094439;28;20027;-67
2022/05/11 08:20:54;;;;;;;14.73;7.07;;;21.30;67.10;;;;;;5094339;28;20035;-67
2022/05/11 08:23:21;;;;;;;12.90;8.07;;;21.40;67.20;;;;;;5094168;28;20529;-67
2022/05/11 08:25:49;;;;;;;16.00;7.63;;;21.40;68.30;;;;;;5093921;28;20047;-66
2022/05/11 08:28:18;;;;;;;15.45;7.47;;;21.50;69.20;;;;;;5092542;28;20036;-66
2022/05/11 08:33:32;;;;;;;13.50;6.70;;;21.70;68.20;;;;;;5094225;28;20043;-67
2022/05/11 08:36:09;;;;;;;13.52;6.68;;;21.70;68.00;;;;;;5094139;28;20023;-66
2022/05/11 08:38:39;;;;;;;16.58;6.88;;;21.80;67.60;;;;;;5093876;28;20490;-66
2022/05/11 08:41:32;;;;;;;20.70;6.35;;;21.80;66.60;;;;;;5093791;28;20020;-67
2022/05/11 08:44:11;;;;;;;14.27;6.82;;;21.90;66.50;;;;;;5093912;28;20035;-67
2022/05/11 08:46:49;;;;;;;13.30;7.00;;;22.00;67.20;;;;;;5093790;28;20063;-67
2022/05/11 08:49:43;;;;;;;16.50;6.93;;;22.00;67.40;;;;;;5093424;28;20080;-67
2022/05/11 08:52:35;;;;;;;12.27;6.13;;;22.10;67.90;;;;;;5093696;28;20110;-67
2022/05/11 08:55:14;;;;;;;11.32;6.50;;;22.10;67.40;;;;;;5093655;28;20480;-67
2022/05/11 08:57:41;;;;;;;19.77;6.95;;;22.20;66.40;;;;;;5093219;28;20024;-67
2022/05/11 09:00:14;;;;;;;15.25;6.80;;;22.30;66.00;;;;;;5093785;28;20008;-67
2022/05/11 09:03:02;;;;;;;17.35;7.80;;;22.30;65.40;;;;;;5093412;28;20055;-67
2022/05/11 09:05:31;;;;;;;14.40;6.70;;;22.40;65.70;;;;;;5093388;28;20104;-67
2022/05/11 09:07:58;;;;;;;17.13;5.70;;;22.40;65.30;;;;;;5093723;28;20480;-67
2022/05/11 09:10:32;;;;;;;12.65;6.07;;;22.50;64.80;;;;;;5093529;28;20024;-67
2022/05/11 09:13:02;;;;;;;18.20;6.18;;;22.60;65.00;;;;;;5093345;28;20078;-66
2022/05/11 09:15:55;;;;;;;15.93;4.97;;;22.70;64.60;;;;;;5093153;28;20032;-68
2022/05/11 09:18:30;;;;;;;19.63;4.90;;;22.70;60.00;;;;;;5093298;28;20043;-68
2022/05/11 09:20:56;;;;;;;13.77;5.15;;;22.80;59.50;;;;;;5093455;28;20028;-68
2022/05/11 09:23:38;;;;;;;15.95;5.50;;;22.90;60.10;;;;;;5093076;28;20012;-68
2022/05/11 09:26:10;;;;;;;18.75;5.40;;;22.90;60.90;;;;;;5093247;28;20051;-67
2022/05/11 09:28:42;;;;;;;14.70;5.60;;;23.00;62.30;;;;;;5093143;28;20476;-67
2022/05/11 09:31:13;;;;;;;12.75;4.50;;;23.10;61.70;;;;;;5093086;28;20081;-68
2022/05/11 09:33:42;;;;;;;14.63;4.47;;;23.10;58.60;;;;;;5093029;28;20035;-67
2022/05/11 09:36:10;;;;;;;19.30;4.47;;;23.20;56.80;;;;;;5093036;28;20058;-67
2022/05/11 09:38:40;;;;;;;15.50;4.72;;;23.20;56.50;;;;;;5092989;28;20024;-68
2022/05/11 09:41:18;;;;;;;12.75;4.80;;;23.30;55.20;;;;;;5092908;28;20115;-67
2022/05/11 09:43:46;;;;;;;16.90;4.93;;;23.30;56.50;;;;;;5092837;28;20389;-68
2022/05/11 09:46:26;;;;;;;13.60;5.07;;;23.40;57.20;;;;;;5092336;28;20324;-68
2022/05/11 09:49:00;;;;;;;15.48;4.85;;;23.40;58.00;;;;;;5091465;28;20481;-68
2022/05/11 09:51:54;;;;;;;16.52;4.32;;;23.50;57.50;;;;;;5092971;28;20353;-67
2022/05/11 09:54:23;;;;;;;13.88;4.63;;;23.60;56.20;;;;;;5092791;28;20070;-68
2022/05/11 09:56:49;;;;;;;12.23;5.13;;;23.70;56.10;;;;;;5093079;28;20024;-68
2022/05/11 09:59:32;;;;;;;12.52;5.72;;;23.70;56.60;;;;;;5091916;28;20016;-68
2022/05/11 10:02:23;;;;;;;14.75;4.93;;;23.80;56.70;;;;;;5092472;28;20032;-67
2022/05/11 10:05:02;;;;;;;18.70;5.13;;;23.90;57.50;;;;;;5092757;28;20066;-68
2022/05/11 10:07:36;;;;;;;17.00;5.07;;;23.90;56.90;;;;;;5092587;28;20081;-67
2022/05/11 10:10:09;;;;;;;13.07;5.18;;;24.00;55.20;;;;;;5094303;28;20127;-68
2022/05/11 10:12:39;;;;;;;16.15;4.70;;;24.10;55.30;;;;;;5096647;28;20488;-68
2022/05/11 10:24:14;;;;;;;25.10;5.20;;;24.30;54.80;;;;;;5096524;28;20036;-67
2022/05/11 10:26:57;;;;;;;26.08;5.82;;;24.40;55.90;;;;;;5095747;28;20131;-67
2022/05/11 10:29:29;;;;;;;16.17;5.50;;;24.50;53.10;;;;;;5095301;28;20025;-68
2022/05/11 10:32:07;;;;;;;21.98;5.30;;;24.60;53.20;;;;;;5094941;28;20419;-69
2022/05/11 10:34:42;;;;;;;21.85;5.78;;;24.60;53.40;;;;;;5095240;28;20044;-68
2022/05/11 10:37:31;;;;;;;15.18;4.80;;;24.70;53.60;;;;;;5095277;28;20473;-68
2022/05/11 10:40:17;;;;;;;14.55;4.75;;;24.80;53.00;;;;;;5095457;28;20024;-68
2022/05/11 10:42:48;;;;;;;10.63;4.25;;;24.80;52.20;;;;;;5096190;28;20411;-69
2022/05/11 10:45:34;;;;;;;19.60;4.95;;;24.90;53.00;;;;;;5095707;28;20544;-68
2022/05/11 10:48:09;;;;;;;16.98;5.20;;;24.90;53.90;;;;;;5095558;28;20036;-69
2022/05/11 10:51:00;;;;;;;14.63;4.43;;;24.90;53.80;;;;;;5095656;28;20020;-68
2022/05/11 10:53:37;;;;;;;18.42;4.93;;;24.90;52.30;;;;;;5095629;28;20578;-68
2022/05/11 10:56:18;;;;;;;24.60;5.60;;;25.00;52.90;;;;;;5095271;28;20073;-68
2022/05/11 10:59:19;;;;;;;17.55;4.78;;;25.00;52.70;;;;;;5095100;28;20139;-68
2022/05/11 11:02:06;;;;;;;17.50;5.30;;;25.00;52.40;;;;;;5094621;28;20044;-68
2022/05/11 11:05:00;;;;;;;17.55;5.13;;;25.00;51.20;;;;;;5095513;28;20031;-68
2022/05/11 11:08:02;;;;;;;19.50;4.53;;;25.00;50.30;;;;;;5094748;28;20040;-68
2022/05/11 11:10:51;;;;;;;18.52;4.93;;;25.00;50.30;;;;;;5094220;28;20089;-68
2022/05/11 11:13:30;;;;;;;10.95;4.28;;;25.00;51.30;;;;;;5094223;28;20053;-69
2022/05/11 11:15:57;;;;;;;12.00;4.53;;;25.00;51.70;;;;;;5093530;28;20028;-68
2022/05/11 11:18:50;;;;;;;16.17;4.78;;;25.10;52.80;;;;;;5094739;28;20024;-68
2022/05/11 11:21:17;;;;;;;11.45;3.95;;;25.10;51.20;;;;;;5092652;28;20530;-68
2022/05/11 11:23:48;;;;;;;15.55;4.53;;;25.10;52.10;;;;;;5094760;28;20034;-68
2022/05/11 11:26:47;;;;;;;16.80;5.13;;;25.20;49.90;;;;;;5095158;28;20037;-67
2022/05/11 11:29:13;;;;;;;17.45;4.38;;;25.20;49.30;;;;;;5095100;28;20082;-67
2022/05/11 11:32:00;;;;;;;15.50;4.60;;;25.20;49.90;;;;;;5094048;28;20392;-70
2022/05/11 11:34:32;;;;;;;15.68;4.03;;;25.20;49.90;;;;;;5094794;28;20111;-67
2022/05/11 11:36:59;;;;;;;18.45;4.93;;;25.20;49.80;;;;;;5094200;28;20414;-67
2022/05/11 11:39:48;;;;;;;16.13;4.57;;;25.30;48.30;;;;;;5094202;28;20047;-67
2022/05/11 11:42:29;;;;;;;20.33;4.30;;;25.20;46.90;;;;;;5093962;28;20066;-67
2022/05/11 11:44:55;;;;;;;12.38;4.40;;;25.30;46.90;;;;;;5094269;28;20407;-67
2022/05/11 11:47:27;;;;;;;15.90;4.18;;;25.30;48.90;;;;;;5094616;28;20032;-71
2022/05/11 11:49:58;;;;;;;17.85;4.88;;;25.40;49.70;;;;;;5094553;28;20025;-71
2022/05/11 11:53:03;;;;;;;14.18;4.50;;;25.40;47.80;;;;;;5094462;28;20024;-68
2022/05/11 11:55:32;;;;;;;12.90;3.70;;;25.40;47.90;;;;;;5093184;28;20393;-68
2022/05/11 11:58:24;;;;;;;20.63;4.65;;;25.40;47.20;;;;;;5094535;28;20024;-70
2022/05/11 12:01:06;;;;;;;14.00;4.00;;;25.50;48.50;;;;;;5094563;28;20068;-66
2022/05/11 12:03:37;;;;;;;;;;;25.50;49.30;;;;;;5094406;28;20024;-65
2022/05/11 12:17:44;;;;;;;14.77;3.92;;;25.50;55.20;;;;;;5093680;28;19918;-66
2022/05/11 12:20:19;;;;;;;16.08;4.28;;;25.40;51.10;;;;;;5092008;28;20039;-69
2022/05/11 12:22:49;;;;;;;12.95;4.25;;;25.30;48.10;;;;;;5093976;28;20115;-66
2022/05/11 12:25:20;;;;;;;21.42;4.20;;;25.20;48.30;;;;;;5093951;28;20060;-67
2022/05/11 12:27:47;;;;;;;17.60;4.28;;;25.20;46.90;;;;;;5093420;28;20412;-71
2022/05/11 12:30:23;;;;;;;10.07;4.15;;;25.20;47.10;;;;;;5093528;28;20361;-65
2022/05/11 12:32:57;;;;;;;18.40;4.75;;;25.10;47.50;;;;;;5092440;28;20051;-66
2022/05/11 12:35:27;;;;;;;13.57;4.50;;;25.10;47.70;;;;;;5093943;28;20028;-66
2022/05/11 12:38:05;;;;;;;13.32;4.03;;;25.00;47.20;;;;;;5093477;28;20032;-70
2022/05/11 12:40:43;;;;;;;12.68;3.80;;;25.00;47.40;;;;;;5093705;28;20131;-66
2022/05/11 12:43:31;;;;;;;13.32;4.05;;;25.10;48.30;;;;;;5093137;28;20429;-66
2022/05/11 12:46:04;;;;;;;13.55;4.10;;;25.10;48.10;;;;;;5090384;28;20028;-66
2022/05/11 12:48:33;;;;;;;11.10;4.10;;;25.10;48.90;;;;;;5090589;28;20040;-66
2022/05/11 12:51:01;;;;;;;17.38;4.38;;;25.20;48.50;;;;;;5093004;28;20035;-67
2022/05/11 12:53:34;;;;;;;12.75;4.00;;;25.20;47.90;;;;;;5093675;28;20028;-72
2022/05/11 12:56:10;;;;;;;13.00;4.07;;;25.20;47.80;;;;;;5093021;28;20024;-69
2022/05/11 12:58:42;;;;;;;16.25;3.97;;;25.20;47.70;;;;;;5093357;28;20024;-71
2022/05/11 13:01:14;;;;;;;15.32;4.05;;;25.20;46.90;;;;;;5093329;28;20103;-66
2022/05/11 13:03:40;;;;;;;21.27;3.90;;;25.20;46.80;;;;;;5092849;28;20365;-66
2022/05/11 13:06:29;;;;;;;21.02;4.13;;;25.10;46.80;;;;;;5093100;28;20436;-66
2022/05/11 13:08:59;;;;;;;16.55;5.05;;;25.10;47.00;;;;;;5093543;28;20035;-65
2022/05/11 13:11:27;;;;;;;12.93;3.78;;;25.10;47.00;;;;;;5092977;28;20103;-66
2022/05/11 13:13:57;;;;;;;11.93;3.50;;;25.10;47.60;;;;;;5092957;28;20373;-65
2022/05/11 13:16:25;;;;;;;17.25;3.90;;;25.20;49.20;;;;;;5093048;28;20038;-66
2022/05/11 13:19:21;;;;;;;17.75;4.70;;;25.30;48.10;;;;;;5092928;28;20024;-65
2022/05/11 13:21:47;;;;;;;12.73;3.80;;;25.30;46.80;;;;;;5093040;28;20073;-66
2022/05/11 13:24:13;;;;;;;17.40;4.20;;;25.30;47.00;;;;;;5091488;28;20028;-65
2022/05/11 13:26:43;;;;;;;13.73;4.63;;;25.30;47.00;;;;;;5092816;28;20536;-65
2022/05/11 13:29:18;;;;;;;10.18;4.05;;;25.20;46.80;;;;;;5088858;28;20105;-66
2022/05/11 13:31:46;;;;;;;15.95;4.18;;;25.20;46.40;;;;;;5089990;28;20035;-65
2022/05/11 13:34:35;;;;;;;11.50;3.83;;;25.20;48.00;;;;;;5092100;28;20480;-64
2022/05/11 13:37:01;;;;;;;12.63;3.65;;;25.20;47.70;;;;;;5092228;28;20043;-65
2022/05/11 13:39:34;;;;;;;14.75;4.10;;;25.30;49.00;;;;;;5092759;28;20043;-65
2022/05/11 13:42:14;;;;;;;16.20;4.28;;;25.30;50.10;;;;;;5092848;28;20024;-65